Time;durP1;ratioP1;P1;durP2;ratioP2;P2;SDS_P1;SDS_P2;PMS_P1;PMS_P2;Temp;Humidity;BMP_temperature;BMP_pressure;BME280_temperature;BME280_humidity;BME280_pressure;Samples;Min_cycle;Max_cycle;Signal;HPM_P1;HPM_P2
2022/01/04 00:02:24;;;;;;;5.63;1.93;;;;;7.60;99754.00;;;;9916749;29;20202;-82
2022/01/04 00:07:27;;;;;;;4.97;2.00;;;;;7.60;99758.00;;;;9893352;29;20226;-83
2022/01/04 00:17:49;;;;;;;6.40;1.93;;;;;7.50;99718.00;;;;9922675;29;20191;-83
2022/01/04 00:22:51;;;;;;;4.50;2.00;;;;;7.50;99700.00;;;;9905278;29;20284;-83
2022/01/04 00:27:53;;;;;;;6.77;2.60;;;;;7.50;99696.00;;;;9885381;29;20276;-83
2022/01/04 00:32:55;;;;;;;5.97;2.47;;;;;7.50;99688.00;;;;9907276;29;20203;-82
2022/01/04 00:37:57;;;;;;;9.53;3.20;;;;;7.50;99672.00;;;;9900405;29;20212;-83
2022/01/04 00:42:59;;;;;;;12.87;4.00;;;;;7.50;99668.00;;;;9924789;29;20211;-82
2022/01/04 00:53:08;;;;;;;9.77;4.10;;;;;7.50;99661.00;;;;9907063;29;20199;-82
2022/01/04 00:58:11;;;;;;;13.03;5.23;;;;;7.50;99658.00;;;;9921373;29;20206;-82
2022/01/04 01:03:13;;;;;;;13.87;5.93;;;;;7.50;99661.00;;;;9951469;29;20199;-82
2022/01/04 01:08:15;;;;;;;15.90;6.20;;;;;7.50;99664.00;;;;9912957;29;20315;-81
2022/01/04 01:13:17;;;;;;;10.93;5.50;;;;;7.50;99656.00;;;;9869332;30;20271;-81
2022/01/04 01:18:19;;;;;;;11.67;4.90;;;;;7.50;99659.00;;;;9883598;30;20204;-80
2022/01/04 01:23:21;;;;;;;10.47;3.97;;;;;7.50;99638.00;;;;9883250;29;20791;-80
2022/01/04 01:28:23;;;;;;;8.67;4.50;;;;;7.50;99636.00;;;;9883813;30;20250;-80
2022/01/04 01:33:27;;;;;;;6.83;3.40;;;;;7.60;99623.00;;;;9883740;29;20194;-80
2022/01/04 01:38:30;;;;;;;9.17;3.50;;;;;7.60;99616.00;;;;9919947;29;20297;-80
2022/01/04 01:43:33;;;;;;;4.83;2.97;;;;;7.60;99612.00;;;;9904977;29;20663;-80
2022/01/04 01:48:35;;;;;;;4.43;2.73;;;;;7.60;99610.00;;;;9920356;29;20208;-80
2022/01/04 01:53:37;;;;;;;5.73;3.00;;;;;7.60;99609.00;;;;9903400;29;20215;-80
2022/01/04 01:58:39;;;;;;;6.37;2.97;;;;;7.60;99595.00;;;;9891219;29;20203;-80
2022/01/04 02:03:40;;;;;;;6.80;2.70;;;;;7.60;99587.00;;;;9905264;29;20195;-80
2022/01/04 02:08:42;;;;;;;6.73;2.70;;;;;7.70;99583.00;;;;9897567;29;20230;-77
2022/01/04 02:13:44;;;;;;;3.80;2.23;;;;;7.70;99569.00;;;;9889750;29;20206;-80
2022/01/04 02:18:46;;;;;;;5.27;2.80;;;;;7.70;99572.00;;;;9904498;29;20210;-80
2022/01/04 02:23:48;;;;;;;3.43;2.67;;;;;7.70;99574.00;;;;9904101;29;20238;-80
2022/01/04 02:28:51;;;;;;;5.40;2.90;;;;;7.70;99563.00;;;;9903093;29;20227;-79
2022/01/04 02:33:53;;;;;;;4.70;2.93;;;;;7.70;99552.00;;;;9903034;29;20203;-80
2022/01/04 02:38:55;;;;;;;5.53;2.83;;;;;7.70;99551.00;;;;9918051;29;20274;-79
2022/01/04 02:43:58;;;;;;;5.30;3.23;;;;;7.70;99518.00;;;;9888756;30;20223;-80
2022/01/04 02:49:00;;;;;;;5.37;3.20;;;;;7.70;99513.00;;;;9866047;30;20219;-79
2022/01/04 02:54:02;;;;;;;8.30;3.63;;;;;7.70;99489.00;;;;9865947;30;20200;-79
2022/01/04 02:59:05;;;;;;;4.20;2.93;;;;;7.60;99483.00;;;;9866174;30;20262;-79
2022/01/04 03:04:07;;;;;;;4.43;3.10;;;;;7.60;99478.00;;;;9880335;30;20207;-80
2022/01/04 03:09:10;;;;;;;3.90;3.03;;;;;7.60;99474.00;;;;9879867;30;20751;-80
2022/01/04 03:14:12;;;;;;;7.40;3.00;;;;;7.60;99469.00;;;;9890202;29;20241;-79
2022/01/04 03:19:14;;;;;;;4.90;3.50;;;;;7.60;99451.00;;;;9901974;29;20199;-79
2022/01/04 03:24:16;;;;;;;4.47;3.40;;;;;7.60;99447.00;;;;9916668;29;20226;-79
2022/01/04 03:29:19;;;;;;;4.03;3.63;;;;;7.60;99444.00;;;;9916302;29;20280;-79
2022/01/04 03:34:21;;;;;;;6.13;4.37;;;;;7.60;99423.00;;;;9901859;29;20724;-79
2022/01/04 03:39:23;;;;;;;5.60;3.97;;;;;7.50;99401.00;;;;9901838;29;20226;-79
2022/01/04 03:44:24;;;;;;;4.77;4.10;;;;;7.50;99389.00;;;;9901549;29;20211;-79
2022/01/04 03:49:26;;;;;;;8.03;4.80;;;;;7.50;99381.00;;;;9923942;29;20268;-79
2022/01/04 03:54:28;;;;;;;6.53;4.97;;;;;7.50;99367.00;;;;9886678;30;20204;-79
2022/01/04 03:59:30;;;;;;;8.47;5.30;;;;;7.40;99363.00;;;;9891058;29;20210;-80
2022/01/04 04:04:33;;;;;;;6.83;4.47;;;;;7.40;99358.00;;;;9907858;29;20225;-79
2022/01/04 04:09:36;;;;;;;8.43;4.23;;;;;7.40;99357.00;;;;9930855;29;20284;-79
2022/01/04 04:14:38;;;;;;;5.53;4.23;;;;;7.40;99353.00;;;;9871949;30;20207;-79
2022/01/04 04:19:48;;;;;;;9.57;5.80;;;;;7.40;99348.00;;;;9870793;30;20242;-79
2022/01/04 04:24:50;;;;;;;7.77;5.03;;;;;7.40;99354.00;;;;9914225;29;20571;-79
2022/01/04 04:29:52;;;;;;;8.37;5.03;;;;;7.40;99352.00;;;;9907693;29;20228;-79
2022/01/04 04:34:55;;;;;;;9.83;5.73;;;;;7.40;99345.00;;;;9922245;29;20199;-79
2022/01/04 04:39:56;;;;;;;10.20;5.37;;;;;7.50;99339.00;;;;9921923;29;20207;-79
2022/01/04 04:44:58;;;;;;;9.90;5.70;;;;;7.50;99325.00;;;;9936802;29;20199;-79
2022/01/04 04:50:02;;;;;;;10.10;6.43;;;;;7.50;99323.00;;;;9921236;29;20199;-79
2022/01/04 04:55:05;;;;;;;10.97;6.63;;;;;7.50;99336.00;;;;9936262;29;20207;-80
2022/01/04 05:00:09;;;;;;;15.03;7.00;;;;;7.50;99331.00;;;;9884090;30;20226;-79
2022/01/04 05:05:12;;;;;;;15.47;7.17;;;;;7.50;99310.00;;;;9897600;29;20269;-79
2022/01/04 05:10:13;;;;;;;16.50;6.70;;;;;7.50;99309.00;;;;9890371;29;20752;-79
2022/01/04 05:15:15;;;;;;;11.07;6.13;;;;;7.50;99298.00;;;;9920977;29;20256;-80
2022/01/04 05:20:17;;;;;;;9.27;5.10;;;;;7.50;99285.00;;;;9934854;29;20223;-79
2022/01/04 05:25:19;;;;;;;9.67;5.83;;;;;7.50;99289.00;;;;9905780;29;20223;-79
2022/01/04 05:30:21;;;;;;;10.30;5.37;;;;;7.40;99273.00;;;;9949886;29;20203;-80
2022/01/04 05:35:23;;;;;;;7.40;5.00;;;;;7.40;99283.00;;;;9935070;29;20195;-79
2022/01/04 05:40:25;;;;;;;8.30;5.70;;;;;7.40;99272.00;;;;9910590;29;20211;-80
2022/01/04 05:45:28;;;;;;;8.20;5.20;;;;;7.40;99278.00;;;;9897440;29;20269;-79
2022/01/04 05:50:31;;;;;;;9.00;5.50;;;;;7.40;99287.00;;;;9905048;29;20211;-79
2022/01/04 05:55:33;;;;;;;10.57;5.53;;;;;7.40;99286.00;;;;9905237;29;20203;-79
2022/01/04 06:00:35;;;;;;;9.03;5.70;;;;;7.50;99276.00;;;;9904935;29;20228;-79
2022/01/04 06:05:37;;;;;;;9.50;5.87;;;;;7.50;99258.00;;;;9908864;29;20222;-79
2022/01/04 06:10:39;;;;;;;9.60;5.90;;;;;7.50;99266.00;;;;9867558;30;20623;-79
2022/01/04 06:15:41;;;;;;;13.70;5.93;;;;;7.50;99259.00;;;;9880090;29;20199;-79
2022/01/04 06:20:44;;;;;;;11.73;6.47;;;;;7.60;99266.00;;;;9918123;29;20292;-79
2022/01/04 06:25:53;;;;;;;10.13;6.30;;;;;7.60;99256.00;;;;9911475;29;20222;-79
2022/01/04 06:30:56;;;;;;;12.73;7.00;;;;;7.50;99260.00;;;;9882078;29;20204;-79
2022/01/04 06:35:58;;;;;;;11.03;6.37;;;;;7.50;99244.00;;;;9894213;29;20202;-79
2022/01/04 06:41:00;;;;;;;11.27;6.57;;;;;7.50;99236.00;;;;9903260;29;20222;-80
2022/01/04 06:46:01;;;;;;;13.10;6.20;;;;;7.50;99232.00;;;;9902142;29;20356;-79
2022/01/04 06:51:04;;;;;;;10.87;6.43;;;;;7.50;99240.00;;;;9903106;29;20213;-79
2022/01/04 06:56:05;;;;;;;10.77;6.23;;;;;7.50;99243.00;;;;9917651;29;20199;-79
2022/01/04 07:01:07;;;;;;;8.80;6.07;;;;;7.50;99214.00;;;;9902204;29;20678;-79
2022/01/04 07:06:10;;;;;;;10.43;5.73;;;;;7.50;99216.00;;;;9901223;29;20217;-78
2022/01/04 07:11:13;;;;;;;10.00;5.50;;;;;7.50;99219.00;;;;9914850;29;20776;-79
2022/01/04 07:16:15;;;;;;;9.20;5.23;;;;;7.60;99218.00;;;;9924760;29;20198;-79
2022/01/04 07:21:18;;;;;;;11.33;5.27;;;;;7.60;99210.00;;;;9894695;29;20227;-79
2022/01/04 07:26:20;;;;;;;9.87;5.07;;;;;7.60;99207.00;;;;9880838;29;20246;-80
2022/01/04 07:31:22;;;;;;;8.93;5.67;;;;;7.60;99195.00;;;;9912676;29;20210;-79
2022/01/04 07:36:26;;;;;;;8.50;4.83;;;;;7.50;99206.00;;;;9904644;29;20195;-79
2022/01/04 07:41:29;;;;;;;14.40;8.37;;;;;7.50;99199.00;;;;9924339;29;20202;-79
2022/01/04 07:46:31;;;;;;;8.70;5.47;;;;;7.50;99210.00;;;;9917420;29;20215;-79
2022/01/04 07:51:33;;;;;;;11.50;6.20;;;;;7.50;99193.00;;;;9871014;29;20212;-79
2022/01/04 07:56:35;;;;;;;13.60;6.40;;;;;7.50;99193.00;;;;9892453;29;20216;-79
2022/01/04 08:01:37;;;;;;;9.97;6.63;;;;;7.50;99200.00;;;;9903497;29;20257;-79
2022/01/04 08:06:41;;;;;;;9.40;7.53;;;;;7.50;99209.00;;;;9880402;29;20219;-79
2022/01/04 08:11:43;;;;;;;12.53;6.53;;;;;7.60;99219.00;;;;9945361;29;20659;-78
2022/01/04 08:16:45;;;;;;;12.33;8.20;;;;;7.60;99209.00;;;;9902596;29;20199;-79
2022/01/04 08:21:48;;;;;;;15.90;9.07;;;;;7.60;99215.00;;;;9882090;29;20243;-79
2022/01/04 08:26:50;;;;;;;13.07;7.83;;;;;7.60;99214.00;;;;9909261;29;20226;-79
2022/01/04 08:31:51;;;;;;;11.83;8.30;;;;;7.60;99218.00;;;;9918370;29;20206;-79
2022/01/04 08:36:54;;;;;;;13.17;8.87;;;;;7.60;99220.00;;;;9926852;29;20258;-79
2022/01/04 08:42:00;;;;;;;17.50;10.10;;;;;7.60;99223.00;;;;9923011;29;20571;-78
2022/01/04 08:47:03;;;;;;;17.80;11.23;;;;;7.70;99219.00;;;;9931672;29;20218;-79
2022/01/04 08:52:06;;;;;;;17.60;10.57;;;;;7.70;99238.00;;;;9891499;29;20199;-79
2022/01/04 08:57:08;;;;;;;17.00;10.67;;;;;7.80;99247.00;;;;9913049;29;20198;-78
2022/01/04 09:02:10;;;;;;;17.40;10.23;;;;;7.90;99268.00;;;;9951910;29;20334;-78
2022/01/04 09:07:13;;;;;;;19.07;11.43;;;;;7.90;99262.00;;;;9910432;29;20207;-78
2022/01/04 09:12:22;;;;;;;17.80;11.03;;;;;7.90;99266.00;;;;9928317;29;20198;-78
2022/01/04 09:22:44;;;;;;;19.43;11.53;;;;;7.90;99249.00;;;;9902259;29;20268;-79
2022/01/04 09:27:50;;;;;;;16.77;12.00;;;;;8.00;99249.00;;;;9914933;29;20222;-79
2022/01/04 09:32:52;;;;;;;21.57;11.60;;;;;8.00;99271.00;;;;9901999;29;20211;-79
2022/01/04 09:37:54;;;;;;;19.53;12.10;;;;;8.10;99282.00;;;;9886640;29;20207;-79
2022/01/04 09:42:57;;;;;;;19.77;12.93;;;;;8.10;99281.00;;;;9912274;29;20563;-79
2022/01/04 09:47:59;;;;;;;26.80;14.07;;;;;8.20;99266.00;;;;9914503;29;20248;-79
2022/01/04 09:53:06;;;;;;;23.80;13.47;;;;;8.20;99294.00;;;;9899084;29;20199;-78
2022/01/04 09:58:09;;;;;;;22.33;13.20;;;;;8.30;99265.00;;;;9903421;29;20207;-78
2022/01/04 10:03:25;;;;;;;19.80;12.73;;;;;8.50;99263.00;;;;9892256;29;20236;-79
2022/01/04 10:08:27;;;;;;;22.40;12.60;;;;;8.60;99266.00;;;;9881538;29;20294;-79
2022/01/04 10:13:30;;;;;;;18.47;12.67;;;;;8.50;99257.00;;;;9914813;29;20196;-78
2022/01/04 10:18:32;;;;;;;20.83;12.23;;;;;8.50;99259.00;;;;9935614;29;20252;-78
2022/01/04 10:23:46;;;;;;;17.57;11.73;;;;;8.40;99258.00;;;;9912691;29;20231;-78
2022/01/04 10:28:48;;;;;;;19.27;11.13;;;;;8.50;99242.00;;;;9903133;29;20269;-78
2022/01/04 10:33:54;;;;;;;18.77;11.53;;;;;8.60;99227.00;;;;9907360;29;20888;-79
2022/01/04 10:39:07;;;;;;;14.57;10.67;;;;;8.70;99248.00;;;;9903636;29;20271;-79
2022/01/04 10:44:10;;;;;;;12.30;10.20;;;;;8.70;99256.00;;;;9926102;29;20583;-78
2022/01/04 10:49:18;;;;;;;18.83;11.87;;;;;8.70;99256.00;;;;9894205;29;20219;-78
2022/01/04 10:54:20;;;;;;;14.63;9.90;;;;;8.80;99241.00;;;;9883412;29;20233;-78
2022/01/04 10:59:27;;;;;;;14.43;9.57;;;;;8.90;99235.00;;;;9917567;29;20202;-78
2022/01/04 11:04:29;;;;;;;14.30;10.17;;;;;9.10;99246.00;;;;9890580;29;20634;-78
2022/01/04 11:09:32;;;;;;;13.67;9.40;;;;;9.20;99254.00;;;;9903796;29;20221;-78
2022/01/04 11:14:35;;;;;;;12.40;8.70;;;;;9.30;99245.00;;;;9902054;29;20204;-77
2022/01/04 11:19:37;;;;;;;10.80;8.87;;;;;9.40;99246.00;;;;9901978;29;20651;-78
2022/01/04 11:24:41;;;;;;;13.60;9.30;;;;;9.30;99264.00;;;;9928827;29;20218;-78
2022/01/04 11:29:46;;;;;;;14.00;8.53;;;;;9.00;99265.00;;;;9895639;29;20269;-78
2022/01/04 11:35:07;;;;;;;12.80;8.03;;;;;9.00;99277.00;;;;9912178;29;20203;-78
2022/01/04 11:40:27;;;;;;;13.87;9.33;;;;;8.90;99275.00;;;;9908125;29;20556;-79
2022/01/04 11:45:48;;;;;;;13.97;9.37;;;;;8.90;99275.00;;;;9903967;29;20191;-79
2022/01/04 11:50:51;;;;;;;10.27;8.17;;;;;8.90;99277.00;;;;9910801;29;20227;-78
2022/01/04 11:56:04;;;;;;;12.53;9.67;;;;;8.90;99272.00;;;;9871257;29;20270;-78
2022/01/04 12:01:06;;;;;;;13.77;9.57;;;;;8.90;99260.00;;;;9904648;29;20202;-78
2022/01/04 12:06:09;;;;;;;12.97;9.90;;;;;9.00;99262.00;;;;9892486;29;20211;-78
2022/01/04 12:11:21;;;;;;;12.20;9.30;;;;;8.90;99250.00;;;;9905703;29;20207;-79
2022/01/04 12:16:43;;;;;;;14.50;9.53;;;;;9.00;99247.00;;;;9908666;29;20238;-78
2022/01/04 12:21:48;;;;;;;13.77;10.13;;;;;8.90;99243.00;;;;9926315;29;20345;-79
2022/01/04 12:27:07;;;;;;;16.20;9.53;;;;;8.90;99227.00;;;;9941141;29;20288;-79
2022/01/04 12:32:20;;;;;;;12.97;9.53;;;;;9.10;99215.00;;;;9915117;29;20249;-78
2022/01/04 12:37:22;;;;;;;13.80;10.43;;;;;9.20;99223.00;;;;9949671;29;20203;-79
2022/01/04 12:42:24;;;;;;;14.10;9.73;;;;;9.20;99209.00;;;;9904860;29;20203;-78
2022/01/04 12:47:28;;;;;;;13.40;9.70;;;;;9.20;99205.00;;;;9908046;29;20216;-79
2022/01/04 12:52:31;;;;;;;13.87;9.67;;;;;9.00;99188.00;;;;9888510;29;20199;-78
2022/01/04 12:57:33;;;;;;;12.37;10.00;;;;;9.10;99204.00;;;;9881462;29;20233;-78
2022/01/04 13:02:35;;;;;;;12.97;9.30;;;;;9.10;99221.00;;;;9912466;29;20304;-79
2022/01/04 13:07:39;;;;;;;10.70;9.00;;;;;9.00;99207.00;;;;9935033;29;20253;-78
2022/01/04 13:12:44;;;;;;;15.80;9.83;;;;;9.10;99213.00;;;;9903807;29;20675;-79
2022/01/04 13:17:51;;;;;;;12.57;10.10;;;;;9.10;99203.00;;;;9921170;29;20199;-78
2022/01/04 13:22:54;;;;;;;13.17;8.47;;;;;9.00;99201.00;;;;9918950;29;20584;-79
2022/01/04 13:28:02;;;;;;;10.80;7.10;;;;;9.00;99226.00;;;;9908550;29;20203;-79
2022/01/04 13:33:05;;;;;;;10.53;6.77;;;;;9.00;99228.00;;;;9888404;29;20199;-79
2022/01/04 13:38:19;;;;;;;10.20;6.00;;;;;9.00;99236.00;;;;9912185;29;20191;-78
2022/01/04 13:43:33;;;;;;;6.93;5.03;;;;;8.90;99211.00;;;;9915351;29;20224;-77
2022/01/04 13:48:37;;;;;;;5.37;4.23;;;;;8.90;99211.00;;;;9888100;29;20222;-78
2022/01/04 13:53:44;;;;;;;3.77;2.30;;;;;8.80;99213.00;;;;9898181;29;20672;-79
2022/01/04 13:58:49;;;;;;;2.60;1.80;;;;;8.60;99210.00;;;;9951101;29;20229;-78
2022/01/04 14:04:12;;;;;;;4.67;1.53;;;;;8.30;99200.00;;;;9898532;29;20207;-78
2022/01/04 14:09:17;;;;;;;2.63;1.97;;;;;8.10;99198.00;;;;9914800;29;20231;-79
2022/01/04 14:14:21;;;;;;;2.60;1.40;;;;;8.00;99200.00;;;;9900078;29;20214;-79
2022/01/04 14:19:46;;;;;;;1.80;1.53;;;;;8.00;99208.00;;;;9892531;29;20203;-78
2022/01/04 14:24:48;;;;;;;4.03;1.50;;;;;7.90;99209.00;;;;9922885;29;20231;-79
2022/01/04 14:30:28;;;;;;;2.50;1.73;;;;;8.00;99218.00;;;;9908146;29;20218;-79
2022/01/04 14:35:33;;;;;;;3.97;3.03;;;;;8.10;99210.00;;;;9892893;29;20271;-79
2022/01/04 14:40:38;;;;;;;5.13;3.27;;;;;8.10;99212.00;;;;9889598;29;20203;-79
2022/01/04 14:45:40;;;;;;;10.50;5.77;;;;;8.00;99214.00;;;;9893291;29;20230;-79
2022/01/04 14:50:42;;;;;;;6.37;4.50;;;;;8.00;99222.00;;;;9923944;29;20245;-78
2022/01/04 14:55:44;;;;;;;10.63;5.43;;;;;8.00;99221.00;;;;9896976;29;20198;-79
2022/01/04 15:01:04;;;;;;;6.87;5.23;;;;;8.10;99241.00;;;;9925794;29;20202;-79
2022/01/04 15:06:06;;;;;;;9.03;4.77;;;;;8.10;99230.00;;;;9931463;29;20296;-79
2022/01/04 15:11:08;;;;;;;8.00;4.93;;;;;8.20;99233.00;;;;9926171;29;20245;-80
2022/01/04 15:16:10;;;;;;;8.27;5.10;;;;;8.10;99241.00;;;;9912032;29;20671;-79
2022/01/04 15:21:14;;;;;;;8.53;4.83;;;;;8.10;99228.00;;;;9946108;29;20227;-78
2022/01/04 15:26:36;;;;;;;6.80;5.00;;;;;8.00;99232.00;;;;9924614;29;20572;-77
2022/01/04 15:31:38;;;;;;;6.50;5.90;;;;;7.90;99255.00;;;;9902992;29;20207;-78
2022/01/04 15:36:41;;;;;;;8.27;5.70;;;;;7.90;99257.00;;;;9924937;29;20732;-77
2022/01/04 15:41:43;;;;;;;10.90;6.60;;;;;7.90;99252.00;;;;9907021;29;20256;-78
2022/01/04 15:46:46;;;;;;;9.43;7.57;;;;;7.80;99256.00;;;;9923568;29;20210;-78
2022/01/04 15:51:48;;;;;;;13.87;9.03;;;;;7.70;99268.00;;;;9921731;29;20207;-79
2022/01/04 15:56:50;;;;;;;13.07;9.33;;;;;7.60;99265.00;;;;9892232;29;20684;-78
2022/01/04 16:01:52;;;;;;;14.87;10.13;;;;;7.60;99273.00;;;;9931002;29;20206;-78
2022/01/04 16:06:55;;;;;;;13.67;10.07;;;;;7.70;99275.00;;;;9927226;29;20675;-78
2022/01/04 16:11:58;;;;;;;11.70;10.00;;;;;7.80;99286.00;;;;9899801;29;20203;-77
2022/01/04 16:22:39;;;;;;;13.83;10.03;;;;;7.80;99282.00;;;;9904820;29;20242;-77
2022/01/04 16:27:41;;;;;;;16.90;9.60;;;;;7.90;99275.00;;;;9925582;29;20223;-78
2022/01/04 16:32:43;;;;;;;11.00;7.73;;;;;7.80;99273.00;;;;9906137;29;20655;-77
2022/01/04 16:37:49;;;;;;;13.20;7.10;;;;;7.80;99279.00;;;;9910251;29;20623;-78
2022/01/04 16:42:52;;;;;;;9.50;6.63;;;;;7.80;99289.00;;;;9903660;29;20225;-77
2022/01/04 16:47:54;;;;;;;11.53;7.37;;;;;7.70;99277.00;;;;9863580;30;20228;-78
2022/01/04 16:52:57;;;;;;;8.27;6.07;;;;;7.70;99286.00;;;;9908034;29;20199;-79
2022/01/04 16:57:59;;;;;;;6.13;4.03;;;;;7.40;99290.00;;;;9939012;29;20249;-79
2022/01/04 17:03:01;;;;;;;6.43;3.53;;;;;7.30;99291.00;;;;9902830;29;20260;-79
2022/01/04 17:08:05;;;;;;;4.10;3.40;;;;;7.20;99282.00;;;;9900431;29;20722;-79
2022/01/04 17:18:48;;;;;;;4.57;3.87;;;;;7.00;99297.00;;;;9810314;30;20209;-79
2022/01/04 17:23:51;;;;;;;6.10;3.30;;;;;7.00;99294.00;;;;9875992;29;20231;-78
2022/01/04 17:28:53;;;;;;;8.10;3.63;;;;;6.90;99304.00;;;;9913099;29;20246;-80
2022/01/04 17:33:55;;;;;;;6.20;3.40;;;;;6.80;99298.00;;;;9896588;29;20253;-81
2022/01/04 17:38:57;;;;;;;6.37;3.53;;;;;6.70;99308.00;;;;9910789;29;20265;-81
2022/01/04 17:43:59;;;;;;;4.47;3.53;;;;;6.70;99314.00;;;;9926795;29;20207;-81
2022/01/04 17:49:01;;;;;;;9.27;3.60;;;;;6.60;99314.00;;;;9943793;29;20218;-81
2022/01/04 17:54:03;;;;;;;7.63;4.30;;;;;6.60;99326.00;;;;9927777;29;20209;-80
2022/01/04 17:59:19;;;;;;;7.93;4.60;;;;;6.60;99321.00;;;;9928283;29;20206;-80
2022/01/04 18:04:55;;;;;;;10.67;5.43;;;;;6.60;99333.00;;;;9901270;29;20208;-82
2022/01/04 18:10:31;;;;;;;11.57;6.47;;;;;6.50;99352.00;;;;9939883;29;20218;-80
2022/01/04 18:16:07;;;;;;;12.43;7.80;;;;;6.40;99337.00;;;;9899729;29;20215;-80
2022/01/04 18:21:43;;;;;;;15.43;7.70;;;;;6.30;99339.00;;;;9926408;29;20230;-80
2022/01/04 18:27:19;;;;;;;14.50;7.67;;;;;6.20;99342.00;;;;9893753;29;20260;-81
2022/01/04 18:32:56;;;;;;;12.77;7.63;;;;;6.20;99346.00;;;;9918325;29;20204;-81
2022/01/04 18:38:32;;;;;;;9.97;6.50;;;;;6.10;99358.00;;;;9922823;29;20199;-81
2022/01/04 18:44:09;;;;;;;9.50;6.10;;;;;6.00;99371.00;;;;9887988;30;20283;-81
2022/01/04 18:49:45;;;;;;;7.53;4.77;;;;;5.90;99371.00;;;;9887100;29;20314;-80
2022/01/04 18:55:22;;;;;;;8.30;4.70;;;;;5.70;99375.00;;;;9871913;29;20227;-80
2022/01/04 19:00:58;;;;;;;13.20;5.57;;;;;5.60;99382.00;;;;9880187;29;20206;-80
2022/01/04 19:06:34;;;;;;;12.30;5.67;;;;;5.50;99389.00;;;;9920529;29;20230;-80
2022/01/04 19:12:10;;;;;;;12.37;6.13;;;;;5.50;99391.00;;;;9893872;29;20239;-79
2022/01/04 19:17:46;;;;;;;8.97;4.43;;;;;5.30;99414.00;;;;9868052;29;20227;-80
2022/01/04 19:23:23;;;;;;;9.03;4.07;;;;;5.10;99435.00;;;;9905925;29;20242;-80
2022/01/04 19:28:59;;;;;;;5.43;3.77;;;;;5.00;99438.00;;;;9897189;29;20235;-80
2022/01/04 19:40:31;;;;;;;10.37;4.33;;;;;4.90;99441.00;;;;9924898;29;20660;-80
2022/01/04 19:46:06;;;;;;;9.10;3.67;;;;;4.90;99452.00;;;;9916585;29;20203;-80
2022/01/04 19:51:44;;;;;;;6.70;2.63;;;;;4.80;99468.00;;;;9935141;29;20917;-82
2022/01/04 19:57:20;;;;;;;8.67;2.20;;;;;4.50;99494.00;;;;9868243;30;20841;-80
2022/01/04 20:02:56;;;;;;;3.90;1.77;;;;;4.40;99496.00;;;;9856303;30;20215;-80
2022/01/04 20:08:32;;;;;;;4.53;1.30;;;;;4.30;99501.00;;;;9875985;29;20221;-80
2022/01/04 20:14:08;;;;;;;6.07;1.40;;;;;4.20;99517.00;;;;9885988;29;20216;-81
2022/01/04 20:19:44;;;;;;;4.73;1.27;;;;;4.10;99520.00;;;;9859631;29;20266;-82
2022/01/04 20:25:20;;;;;;;8.13;1.97;;;;;4.00;99529.00;;;;9924067;29;20233;-80
2022/01/04 20:30:56;;;;;;;5.47;1.60;;;;;3.80;99532.00;;;;9910622;29;20254;-81
2022/01/04 20:36:33;;;;;;;4.73;1.80;;;;;3.70;99535.00;;;;9908885;29;20226;-82
2022/01/04 20:42:09;;;;;;;4.50;1.60;;;;;3.70;99542.00;;;;9915448;29;20776;-82
2022/01/04 20:47:45;;;;;;;8.90;2.27;;;;;3.70;99548.00;;;;9910238;29;20219;-82
2022/01/04 20:53:21;;;;;;;6.07;2.43;;;;;3.60;99550.00;;;;9935949;29;20225;-83
2022/01/04 20:58:57;;;;;;;5.57;1.77;;;;;3.50;99565.00;;;;9843074;30;20232;-82
2022/01/04 21:04:33;;;;;;;5.73;1.80;;;;;3.30;99565.00;;;;9882547;29;20216;-82
2022/01/04 21:10:10;;;;;;;4.20;1.27;;;;;3.30;99583.00;;;;9837175;30;20335;-82
2022/01/04 21:15:47;;;;;;;4.70;0.90;;;;;3.20;99595.00;;;;9871352;30;20211;-81
2022/01/04 21:21:22;;;;;;;7.17;1.17;;;;;3.10;99586.00;;;;9871886;29;20729;-81
2022/01/04 21:26:58;;;;;;;6.40;1.03;;;;;3.10;99589.00;;;;9927365;29;20212;-82
2022/01/04 21:32:34;;;;;;;4.83;1.53;;;;;3.10;99596.00;;;;9945147;29;20251;-81
2022/01/04 21:38:10;;;;;;;4.27;1.40;;;;;3.20;99612.00;;;;9898673;29;20568;-82
2022/01/04 21:43:47;;;;;;;8.23;2.03;;;;;3.20;99615.00;;;;9880147;30;20212;-81
2022/01/04 21:49:23;;;;;;;7.80;1.50;;;;;3.20;99617.00;;;;9864585;30;20219;-82
2022/01/04 21:55:03;;;;;;;4.30;1.20;;;;;3.30;99634.00;;;;9922535;29;20698;-81
2022/01/04 22:00:39;;;;;;;4.03;1.67;;;;;3.30;99642.00;;;;9907397;29;20203;-81
2022/01/04 22:06:14;;;;;;;5.13;1.90;;;;;3.30;99651.00;;;;9892065;29;20239;-81
2022/01/04 22:11:50;;;;;;;3.60;1.57;;;;;3.40;99656.00;;;;9911622;29;20207;-81
2022/01/04 22:17:26;;;;;;;12.53;2.43;;;;;3.40;99664.00;;;;9916566;29;20203;-81
2022/01/04 22:23:02;;;;;;;10.40;2.67;;;;;3.40;99662.00;;;;9882548;29;20247;-81
2022/01/04 22:28:38;;;;;;;4.60;1.80;;;;;3.40;99668.00;;;;9847769;29;20230;-80
2022/01/04 22:34:14;;;;;;;9.37;2.10;;;;;3.40;99672.00;;;;9894113;29;20205;-80
2022/01/04 22:39:50;;;;;;;10.37;2.93;;;;;3.40;99679.00;;;;9884639;29;20203;-80
2022/01/04 22:45:26;;;;;;;9.67;2.77;;;;;3.40;99686.00;;;;9872782;29;20210;-81
2022/01/04 22:51:25;;;;;;;13.97;3.10;;;;;3.30;99703.00;;;;9894805;29;20223;-80
2022/01/04 22:56:28;;;;;;;10.53;4.37;;;;;3.30;99709.00;;;;9908467;29;20266;-80
2022/01/04 23:01:29;;;;;;;9.93;3.13;;;;;3.30;99719.00;;;;9914569;29;20222;-80
2022/01/04 23:06:32;;;;;;;5.13;3.70;;;;;3.20;99699.00;;;;9928287;29;20215;-81
2022/01/04 23:11:34;;;;;;;16.63;3.70;;;;;3.20;99711.00;;;;9922178;29;20235;-80
2022/01/04 23:16:36;;;;;;;16.63;3.57;;;;;3.10;99708.00;;;;9941069;29;20281;-80
2022/01/04 23:21:38;;;;;;;15.63;3.40;;;;;3.10;99723.00;;;;9936555;29;20313;-80
2022/01/04 23:26:40;;;;;;;12.93;2.93;;;;;3.00;99738.00;;;;9906385;29;20294;-80
2022/01/04 23:31:42;;;;;;;16.73;3.63;;;;;3.00;99757.00;;;;9912566;29;20239;-80
2022/01/04 23:37:00;;;;;;;10.27;3.07;;;;;2.90;99763.00;;;;9938901;29;20660;-79
2022/01/04 23:42:03;;;;;;;12.13;3.30;;;;;2.90;99788.00;;;;9881091;29;20199;-79
2022/01/04 23:47:18;;;;;;;8.40;2.67;;;;;2.80;99792.00;;;;9899090;29;20656;-80
2022/01/04 23:52:54;;;;;;;17.77;2.80;;;;;2.70;99800.00;;;;9943394;29;20209;-80
2022/01/04 23:58:30;;;;;;;8.90;3.37;;;;;2.70;99796.00;;;;9886223;29;20210;-81
